Time;durP1;ratioP1;P1;durP2;ratioP2;P2;SDS_P1;SDS_P2;PMS_P1;PMS_P2;Temp;Humidity;BMP_temperature;BMP_pressure;BME280_temperature;BME280_humidity;BME280_pressure;Samples;Min_cycle;Max_cycle;Signal;HPM_P1;HPM_P2
2023/07/14 00:02:20;;;;;;;7.90;1.93;;;;;;;;;;6193068;23;20732;-86
2023/07/14 00:04:46;;;;;;;7.40;1.57;;;;;;;;;;6190736;23;20494;-87
2023/07/14 00:07:12;;;;;;;2.20;1.60;;;;;;;;;;6216567;23;20679;-86
2023/07/14 00:09:42;;;;;;;3.80;1.70;;;;;;;;;;6192509;23;20867;-86
2023/07/14 00:12:09;;;;;;;2.40;1.50;;;;;;;;;;6195368;23;20383;-86
2023/07/14 00:14:35;;;;;;;3.10;1.90;;;;;;;;;;6194267;23;20387;-86
2023/07/14 00:17:01;;;;;;;3.53;1.60;;;;;;;;;;6196236;23;20885;-86
2023/07/14 00:19:27;;;;;;;3.60;1.70;;;;;;;;;;6194642;23;20750;-90
2023/07/14 00:21:53;;;;;;;3.77;1.80;;;;;;;;;;6199552;23;20386;-90
2023/07/14 00:24:20;;;;;;;5.00;1.50;;;;;;;;;;6198692;23;20433;-90
2023/07/14 00:26:48;;;;;;;3.43;1.60;;;;;;;;;;6225032;23;20434;-90
2023/07/14 00:29:26;;;;;;;3.70;1.70;;;;;;;;;;6225050;23;20359;-90
2023/07/14 00:31:52;;;;;;;5.00;1.90;;;;;;;;;;6222343;23;20390;-90
2023/07/14 00:34:22;;;;;;;2.77;1.67;;;;;;;;;;6197144;23;20359;-94
2023/07/14 00:36:48;;;;;;;2.80;1.70;;;;;;;;;;6224373;23;20711;-94
2023/07/14 00:39:14;;;;;;;2.40;1.90;;;;;;;;;;6199383;23;20458;-93
2023/07/14 00:41:40;;;;;;;2.50;1.50;;;;;;;;;;6197836;23;20391;-93
2023/07/14 00:44:06;;;;;;;2.23;1.50;;;;;;;;;;6169443;23;20408;-93
2023/07/14 00:46:32;;;;;;;3.33;2.00;;;;;;;;;;6144082;23;20380;-93
2023/07/14 00:49:02;;;;;;;2.00;1.30;;;;;;;;;;6144414;23;20391;-93
2023/07/14 00:51:30;;;;;;;1.97;1.43;;;;;;;;;;6143065;23;20831;-93
2023/07/14 00:53:56;;;;;;;3.23;2.33;;;;;;;;;;6143849;23;20420;-93
2023/07/14 00:56:36;;;;;;;1.90;1.50;;;;;;;;;;6146045;23;20400;-94
2023/07/14 00:59:03;;;;;;;3.40;1.80;;;;;;;;;;6144259;23;20561;-93
2023/07/14 01:01:31;;;;;;;4.20;1.83;;;;;;;;;;6144188;23;20396;-93
2023/07/14 01:03:57;;;;;;;3.93;1.80;;;;;;;;;;6144592;23;20380;-93
2023/07/14 01:06:29;;;;;;;4.17;1.93;;;;;;;;;;6142726;23;20864;-93
2023/07/14 01:08:59;;;;;;;2.87;1.40;;;;;;;;;;6142982;23;20414;-93
2023/07/14 01:11:27;;;;;;;4.40;2.07;;;;;;;;;;6141453;23;20420;-93
2023/07/14 01:13:54;;;;;;;4.13;2.00;;;;;;;;;;6140406;23;20380;-93
2023/07/14 01:16:20;;;;;;;2.17;1.53;;;;;;;;;;6196788;23;20383;-93
2023/07/14 01:18:47;;;;;;;3.00;1.60;;;;;;;;;;6198611;23;20410;-93
2023/07/14 01:21:13;;;;;;;4.00;2.13;;;;;;;;;;6195025;23;20398;-93
2023/07/14 01:23:55;;;;;;;3.43;1.70;;;;;;;;;;6196743;23;20379;-94
2023/07/14 01:26:40;;;;;;;4.20;1.33;;;;;;;;;;6221532;23;20375;-93
2023/07/14 01:29:06;;;;;;;4.07;2.07;;;;;;;;;;6221216;23;20714;-93
2023/07/14 01:31:35;;;;;;;3.00;1.60;;;;;;;;;;6194946;23;20426;-95
2023/07/14 01:34:02;;;;;;;3.40;1.57;;;;;;;;;;6200605;23;20391;-95
2023/07/14 01:36:34;;;;;;;4.40;1.63;;;;;;;;;;6201004;23;20387;-95
2023/07/14 01:39:00;;;;;;;3.13;1.80;;;;;;;;;;6202678;23;20383;-96
2023/07/14 01:41:26;;;;;;;3.50;1.90;;;;;;;;;;6200579;23;20399;-95
2023/07/14 01:43:53;;;;;;;7.33;2.30;;;;;;;;;;6201609;23;20371;-95
2023/07/14 01:46:19;;;;;;;2.77;1.70;;;;;;;;;;6198890;23;20379;-94
2023/07/14 01:48:48;;;;;;;3.63;1.50;;;;;;;;;;6198998;23;20382;-94
2023/07/14 01:51:15;;;;;;;3.97;2.00;;;;;;;;;;6222862;23;20423;-94
2023/07/14 01:53:45;;;;;;;3.13;1.60;;;;;;;;;;6201622;23;20383;-95
2023/07/14 01:56:12;;;;;;;2.17;1.63;;;;;;;;;;6196673;23;20387;-94
2023/07/14 01:58:39;;;;;;;3.07;1.57;;;;;;;;;;6200428;23;20383;-94
2023/07/14 02:01:05;;;;;;;4.00;2.00;;;;;;;;;;6200327;23;20410;-93
2023/07/14 02:03:41;;;;;;;11.07;2.43;;;;;;;;;;6199678;23;20401;-93
2023/07/14 02:06:07;;;;;;;6.33;2.60;;;;;;;;;;6199923;23;20415;-94
2023/07/14 02:08:33;;;;;;;2.60;1.87;;;;;;;;;;6201606;23;20463;-93
2023/07/14 02:10:59;;;;;;;5.40;2.07;;;;;;;;;;6201346;23;20482;-93
2023/07/14 02:13:25;;;;;;;5.40;2.00;;;;;;;;;;6201102;23;20563;-93
2023/07/14 02:15:51;;;;;;;2.90;1.93;;;;;;;;;;6201266;23;20375;-93
2023/07/14 02:18:19;;;;;;;2.80;1.87;;;;;;;;;;6203018;23;20395;-95
2023/07/14 02:20:47;;;;;;;4.67;1.80;;;;;;;;;;6202506;23;20379;-94
2023/07/14 02:23:14;;;;;;;5.80;2.30;;;;;;;;;;6203018;23;20477;-94
2023/07/14 02:25:41;;;;;;;6.23;2.20;;;;;;;;;;6203583;23;20383;-94
2023/07/14 02:28:08;;;;;;;2.23;1.90;;;;;;;;;;6203834;23;20868;-94
2023/07/14 02:30:34;;;;;;;2.97;1.60;;;;;;;;;;6201350;23;20438;-94
2023/07/14 02:33:27;;;;;;;2.30;2.07;;;;;;;;;;6200705;23;20380;-95
2023/07/14 02:35:59;;;;;;;3.43;1.93;;;;;;;;;;6246796;23;20887;-94
2023/07/14 02:38:25;;;;;;;4.30;2.10;;;;;;;;;;6226969;23;20831;-94
2023/07/14 02:40:55;;;;;;;3.30;1.83;;;;;;;;;;6202045;23;20390;-94
2023/07/14 02:43:21;;;;;;;3.90;2.03;;;;;;;;;;6203796;23;20391;-94
2023/07/14 02:45:54;;;;;;;4.40;3.23;;;;;;;;;;6203283;23;20398;-94
2023/07/14 02:48:21;;;;;;;2.40;1.80;;;;;;;;;;6226470;23;20375;-94
2023/07/14 02:50:47;;;;;;;2.73;1.73;;;;;;;;;;6200329;23;20414;-93
2023/07/14 02:53:14;;;;;;;4.93;2.30;;;;;;;;;;6200582;23;20359;-94
2023/07/14 02:55:40;;;;;;;4.70;2.07;;;;;;;;;;6201473;23;20398;-94
2023/07/14 02:58:06;;;;;;;5.70;1.93;;;;;;;;;;6201568;23;20383;-92
2023/07/14 03:00:33;;;;;;;2.23;1.43;;;;;;;;;;6200467;23;20398;-93
2023/07/14 03:02:59;;;;;;;2.70;1.80;;;;;;;;;;6199764;23;20379;-94
2023/07/14 03:05:25;;;;;;;4.83;1.93;;;;;;;;;;6200079;23;20858;-93
2023/07/14 03:07:51;;;;;;;6.77;1.93;;;;;;;;;;6200156;23;20366;-94
2023/07/14 03:10:17;;;;;;;2.40;1.80;;;;;;;;;;6201267;23;20427;-94
2023/07/14 03:12:43;;;;;;;2.40;1.60;;;;;;;;;;6200788;23;20867;-92
2023/07/14 03:15:09;;;;;;;2.60;1.60;;;;;;;;;;6199957;23;20465;-94
2023/07/14 03:17:38;;;;;;;7.00;2.40;;;;;;;;;;6200301;23;20466;-94
2023/07/14 03:20:06;;;;;;;4.30;2.20;;;;;;;;;;6201464;23;20394;-94
2023/07/14 03:22:32;;;;;;;3.40;2.10;;;;;;;;;;6200154;23;20410;-94
2023/07/14 03:25:00;;;;;;;3.50;2.00;;;;;;;;;;6200207;23;20380;-94
2023/07/14 03:27:29;;;;;;;3.27;1.70;;;;;;;;;;6200280;23;20459;-94
2023/07/14 03:29:55;;;;;;;3.43;2.10;;;;;;;;;;6200621;23;20419;-94
2023/07/14 03:32:21;;;;;;;3.87;2.43;;;;;;;;;;6199563;23;20405;-93
2023/07/14 03:34:47;;;;;;;5.13;1.87;;;;;;;;;;6200767;23;20414;-93
2023/07/14 03:37:13;;;;;;;2.57;1.63;;;;;;;;;;6199086;23;20390;-93
2023/07/14 03:39:39;;;;;;;2.67;2.30;;;;;;;;;;6199786;23;20382;-94
2023/07/14 03:42:05;;;;;;;3.63;2.00;;;;;;;;;;6199872;23;20399;-93
2023/07/14 03:44:32;;;;;;;5.13;1.73;;;;;;;;;;6200576;23;20407;-93
2023/07/14 03:46:58;;;;;;;5.57;2.27;;;;;;;;;;6200125;23;20718;-92
2023/07/14 03:49:24;;;;;;;3.23;2.30;;;;;;;;;;6202632;23;20383;-92
2023/07/14 03:51:51;;;;;;;4.20;2.10;;;;;;;;;;6200585;23;20422;-94
2023/07/14 03:54:17;;;;;;;3.03;1.67;;;;;;;;;;6203100;23;20387;-93
2023/07/14 03:56:44;;;;;;;4.37;2.33;;;;;;;;;;6202373;23;20485;-94
2023/07/14 03:59:10;;;;;;;5.00;2.00;;;;;;;;;;6203679;23;20910;-94
2023/07/14 04:01:36;;;;;;;4.53;1.80;;;;;;;;;;6202733;23;20394;-93
2023/07/14 04:04:02;;;;;;;3.33;2.43;;;;;;;;;;6202766;23;20391;-93
2023/07/14 04:06:28;;;;;;;3.50;2.00;;;;;;;;;;6202949;23;20376;-94
2023/07/14 04:08:56;;;;;;;4.27;1.90;;;;;;;;;;6203859;23;20379;-94
2023/07/14 04:11:23;;;;;;;2.33;1.80;;;;;;;;;;6203240;23;20460;-96
2023/07/14 04:13:49;;;;;;;2.37;1.73;;;;;;;;;;6203457;23;20410;-94
2023/07/14 04:16:15;;;;;;;3.00;1.70;;;;;;;;;;6203846;23;20433;-95
2023/07/14 04:18:41;;;;;;;4.63;1.50;;;;;;;;;;6202163;23;20387;-93
2023/07/14 04:21:08;;;;;;;6.00;2.20;;;;;;;;;;6202701;23;20454;-93
2023/07/14 04:23:34;;;;;;;3.30;2.33;;;;;;;;;;6203021;23;20454;-94
2023/07/14 04:26:00;;;;;;;4.23;1.90;;;;;;;;;;6201353;23;20387;-93
2023/07/14 04:28:26;;;;;;;3.10;2.00;;;;;;;;;;6201688;23;20391;-94
2023/07/14 04:30:53;;;;;;;3.97;1.97;;;;;;;;;;6202231;23;20411;-95
2023/07/14 04:33:21;;;;;;;6.07;2.00;;;;;;;;;;6201449;23;20379;-95
2023/07/14 04:35:47;;;;;;;10.43;2.73;;;;;;;;;;6202776;23;20466;-95
2023/07/14 04:38:14;;;;;;;3.80;2.40;;;;;;;;;;6202137;23;20383;-95
2023/07/14 04:40:43;;;;;;;4.40;2.10;;;;;;;;;;6201633;23;20387;-96
2023/07/14 04:43:09;;;;;;;3.83;1.53;;;;;;;;;;6202271;23;20406;-96
2023/07/14 04:45:38;;;;;;;5.07;1.93;;;;;;;;;;6202912;23;20418;-94
2023/07/14 04:48:06;;;;;;;3.70;2.40;;;;;;;;;;6224793;23;20942;-94
2023/07/14 04:50:32;;;;;;;3.30;2.30;;;;;;;;;;6201730;23;20422;-96
2023/07/14 04:52:58;;;;;;;6.97;2.40;;;;;;;;;;6201467;23;20390;-94
2023/07/14 04:55:24;;;;;;;2.57;2.17;;;;;;;;;;6200777;23;20383;-93
2023/07/14 04:57:51;;;;;;;5.77;1.97;;;;;;;;;;6199144;23;20426;-94
2023/07/14 05:00:18;;;;;;;3.83;2.57;;;;;;;;;;6199949;23;20393;-95
2023/07/14 05:02:44;;;;;;;8.70;3.27;;;;;;;;;;6199140;23;20398;-92
2023/07/14 05:05:11;;;;;;;4.30;2.33;;;;;;;;;;6196589;23;20370;-93
2023/07/14 05:07:43;;;;;;;4.20;2.63;;;;;;;;;;6225634;23;20398;-94
2023/07/14 05:10:11;;;;;;;4.40;2.37;;;;;;;;;;6200417;23;20410;-95
2023/07/14 05:12:39;;;;;;;5.07;2.63;;;;;;;;;;6203635;23;20455;-95
2023/07/14 05:15:05;;;;;;;4.17;2.13;;;;;;;;;;6200392;23;20410;-95
2023/07/14 05:17:36;;;;;;;4.53;2.37;;;;;;;;;;6202141;23;20379;-95
2023/07/14 05:20:02;;;;;;;2.80;1.87;;;;;;;;;;6203327;23;20395;-94
2023/07/14 05:22:30;;;;;;;8.30;2.20;;;;;;;;;;6170318;23;20447;-94
2023/07/14 05:35:39;;;;;;;4.40;2.80;;;;;;;;;;5072335;27;1342847;-92
2023/07/14 05:38:06;;;;;;;5.10;2.83;;;;;;;;;;5055841;28;20176;-93
2023/07/14 05:40:32;;;;;;;7.43;2.50;;;;;;;;;;5073462;28;20413;-93
2023/07/14 11:39:26;;;;;;;3.40;2.13;;;;;;;;;;4972334;28;20513;-90
2023/07/14 11:41:52;;;;;;;3.70;2.23;;;;;;;;;;4958574;28;20430;-91
2023/07/14 11:44:19;;;;;;;5.70;2.10;;;;;;;;;;4953409;28;20443;-90
2023/07/14 11:46:49;;;;;;;7.73;2.00;;;;;;;;;;4938981;28;20446;-91
2023/07/14 11:49:24;;;;;;;3.90;2.40;;;;;;;;;;4955370;29;20455;-90
2023/07/14 11:51:56;;;;;;;3.93;2.60;;;;;;;;;;4946783;28;20553;-91
2023/07/14 11:54:41;;;;;;;3.70;2.30;;;;;;;;;;4932175;28;20594;-91
2023/07/14 11:57:08;;;;;;;3.50;2.67;;;;;;;;;;4932509;28;20574;-90
2023/07/14 11:59:35;;;;;;;3.43;2.37;;;;;;;;;;4953793;28;20414;-91
2023/07/14 12:02:20;;;;;;;3.60;2.57;;;;;;;;;;4959283;28;20838;-91
2023/07/14 12:04:57;;;;;;;2.50;1.70;;;;;;;;;;4962367;28;20459;-91
2023/07/14 12:07:24;;;;;;;3.13;1.77;;;;;;;;;;4953880;28;20434;-91
2023/07/14 12:09:53;;;;;;;2.50;1.90;;;;;;;;;;4940378;28;20534;-90
2023/07/14 12:12:19;;;;;;;2.90;2.17;;;;;;;;;;4968473;28;20430;-91
2023/07/14 12:14:47;;;;;;;3.93;1.83;;;;;;;;;;4953976;28;20538;-90
2023/07/14 12:22:43;;;;;;;4.30;1.93;;;;;;;;;;4997149;28;20476;-90
2023/07/14 12:25:15;;;;;;;3.07;2.30;;;;;;;;;;4982522;28;21029;-93
2023/07/14 12:27:47;;;;;;;5.47;2.63;;;;;;;;;;4963102;28;20437;-91
2023/07/14 12:30:18;;;;;;;4.07;2.53;;;;;;;;;;4972152;28;20833;-91
2023/07/14 12:32:44;;;;;;;2.90;2.00;;;;;;;;;;4965681;28;20960;-93
2023/07/14 12:35:13;;;;;;;3.30;1.90;;;;;;;;;;4963614;28;20468;-92
2023/07/14 12:37:40;;;;;;;5.17;2.60;;;;;;;;;;4975982;28;20432;-92
2023/07/14 12:40:19;;;;;;;4.87;2.10;;;;;;;;;;4969765;28;20437;-91
2023/07/14 12:42:46;;;;;;;3.23;2.00;;;;;;;;;;4960589;28;20426;-93
2023/07/14 12:45:12;;;;;;;3.03;2.37;;;;;;;;;;4956088;28;20472;-91
2023/07/14 12:47:46;;;;;;;3.50;2.07;;;;;;;;;;4954928;28;20811;-90
2023/07/14 12:50:25;;;;;;;2.40;1.80;;;;;;;;;;4938355;28;20421;-91
2023/07/14 12:52:51;;;;;;;3.20;2.20;;;;;;;;;;4965768;28;20434;-90
2023/07/14 12:55:26;;;;;;;3.20;2.30;;;;;;;;;;4945399;28;20474;-90
2023/07/14 12:57:53;;;;;;;7.50;1.90;;;;;;;;;;4969858;28;20480;-90
2023/07/14 13:00:22;;;;;;;3.53;2.03;;;;;;;;;;4948071;28;20423;-91
2023/07/14 13:02:49;;;;;;;3.27;1.90;;;;;;;;;;4961757;28;20415;-91
2023/07/14 13:05:19;;;;;;;3.23;1.90;;;;;;;;;;4927345;29;20413;-91
2023/07/14 13:07:49;;;;;;;3.43;2.00;;;;;;;;;;4937310;29;20468;-89
2023/07/14 13:10:17;;;;;;;2.50;1.80;;;;;;;;;;4910761;29;20423;-90
2023/07/14 13:12:43;;;;;;;4.40;1.80;;;;;;;;;;4922906;29;20415;-91
2023/07/14 13:15:13;;;;;;;6.30;2.13;;;;;;;;;;4923129;29;21074;-89
2023/07/14 13:17:39;;;;;;;3.50;2.67;;;;;;;;;;4928351;29;20459;-90
2023/07/14 13:20:09;;;;;;;6.23;4.97;;;;;;;;;;4947978;28;20525;-89
2023/07/14 13:22:37;;;;;;;3.30;2.60;;;;;;;;;;4936241;28;20494;-89
2023/07/14 13:25:31;;;;;;;14.13;10.83;;;;;;;;;;4941871;29;20930;-90
2023/07/14 13:27:57;;;;;;;4.00;2.17;;;;;;;;;;4926631;29;20442;-89
2023/07/14 13:30:23;;;;;;;4.60;2.43;;;;;;;;;;4898751;29;20412;-89
2023/07/14 13:32:52;;;;;;;4.13;1.87;;;;;;;;;;4897151;29;20452;-88
2023/07/14 13:35:22;;;;;;;3.90;2.40;;;;;;;;;;4910433;29;20456;-90
2023/07/14 13:37:49;;;;;;;3.90;2.27;;;;;;;;;;4923550;29;20451;-89
2023/07/14 13:40:19;;;;;;;2.87;2.23;;;;;;;;;;4941136;28;20475;-89
2023/07/14 13:42:50;;;;;;;4.10;3.27;;;;;;;;;;4951544;28;20455;-94
2023/07/14 13:45:38;;;;;;;3.70;2.20;;;;;;;;;;4930635;28;20507;-93
2023/07/14 13:48:31;;;;;;;2.27;1.70;;;;;;;;;;4919481;29;20489;-95
2023/07/14 21:11:41;;;;;;;4.83;3.40;;;;;;;;;;1186830;23;20787;-88
2023/07/14 21:14:09;;;;;;;3.20;2.90;;;;;;;;;;4943751;28;20534;-92
2023/07/14 21:16:35;;;;;;;3.83;3.43;;;;;;;;;;4926244;29;20519;-91
2023/07/14 21:19:02;;;;;;;8.50;4.30;;;;;;;;;;4928278;28;20447;-92
2023/07/14 21:21:32;;;;;;;5.10;4.60;;;;;;;;;;4932297;28;20982;-92
2023/07/14 21:23:58;;;;;;;5.03;4.00;;;;;;;;;;4929815;28;20555;-91
